Terminal Aerodrome Forecast
Issued by NWS Flagstaff, AZ

Home | Current Version | Previous Version | Text Only | Print | Product List | Glossary On
Versions: 1 2 3 4 5 6 7 8 9 10 11 12 13 14 15 16 17
586
FTUS45 KFGZ 241720
TAFINW
TAF
KINW 241720Z 2418/2518 VRB05KT P6SM VCSH FEW120
     FM242100 28010KT P6SM SCT100
     FM250400 VRB05KT P6SM SCT120=

USA.gov is the U.S. government's official web portal to all federal, state and local government web resources and services.